createdAt,value
2023-05-23T00:00:59.312Z,4.22
2023-05-23T00:03:45.822Z,3.58
2023-05-23T00:06:31.980Z,4.03
2023-05-23T00:09:18.512Z,3.95
2023-05-23T00:12:05.122Z,3.70
2023-05-23T00:14:53.714Z,4.10
2023-05-23T00:17:39.851Z,4.13
2023-05-23T00:20:25.598Z,3.58
2023-05-23T00:23:27.862Z,4.35
2023-05-23T00:26:14.016Z,3.78
2023-05-23T00:29:05.008Z,4.40
2023-05-23T00:31:50.951Z,3.80
2023-05-23T00:34:37.951Z,3.90
2023-05-23T00:37:23.789Z,4.25
2023-05-23T00:40:10.286Z,3.83
2023-05-23T00:42:56.311Z,3.80
2023-05-23T00:45:42.596Z,3.80
2023-05-23T00:48:29.266Z,3.75
2023-05-23T00:51:16.318Z,3.53
2023-05-23T00:54:04.335Z,3.90
2023-05-23T00:56:50.263Z,3.50
2023-05-23T00:59:37.386Z,3.90
2023-05-23T01:02:23.309Z,3.83
2023-05-23T01:05:11.599Z,3.80
2023-05-23T01:07:57.809Z,3.70
2023-05-23T01:10:43.575Z,3.85
2023-05-23T01:13:45.154Z,3.80
2023-05-23T01:16:48.961Z,3.80
2023-05-23T01:20:10.145Z,3.60
2023-05-23T01:23:12.115Z,3.53
2023-05-23T01:26:04.253Z,3.55
2023-05-23T01:28:54.527Z,3.50
2023-05-23T01:31:47.152Z,3.53
2023-05-23T01:34:35.774Z,3.03
2023-05-23T01:37:21.919Z,3.58
2023-05-23T01:40:09.657Z,3.55
2023-05-23T01:42:57.863Z,3.30
2023-05-23T01:45:43.976Z,3.20
2023-05-23T01:48:32.228Z,3.47
2023-05-23T01:51:19.066Z,3.63
2023-05-23T01:54:05.668Z,3.90
2023-05-23T01:56:51.655Z,3.55
2023-05-23T01:59:38.658Z,3.60
2023-05-23T02:02:25.175Z,3.80
2023-05-23T02:05:13.824Z,3.53
2023-05-23T02:08:00.063Z,3.60
2023-05-23T02:10:46.057Z,3.58
2023-05-23T02:13:31.827Z,3.60
2023-05-23T02:16:18.169Z,3.17
2023-05-23T02:19:05.160Z,3.40
2023-05-23T02:21:51.092Z,3.75
2023-05-23T02:24:37.572Z,3.47
2023-05-23T02:27:23.501Z,3.05
2023-05-23T02:30:09.714Z,3.30
2023-05-23T02:32:57.695Z,3.70
2023-05-23T02:35:44.385Z,3.45
2023-05-23T02:38:30.950Z,3.60
2023-05-23T02:41:17.056Z,3.42
2023-05-23T02:44:03.810Z,4.00
2023-05-23T02:46:51.250Z,3.67
2023-05-23T02:49:37.359Z,3.38
2023-05-23T02:52:23.263Z,3.88
2023-05-23T02:55:09.767Z,3.63
2023-05-23T02:58:00.837Z,3.40
2023-05-23T03:00:47.178Z,4.00
2023-05-23T03:03:33.313Z,3.88
2023-05-23T03:06:22.672Z,4.03
2023-05-23T03:09:10.627Z,4.25
2023-05-23T03:11:56.573Z,4.13
2023-05-23T03:14:42.307Z,3.60
2023-05-23T03:17:28.195Z,4.40
2023-05-23T03:20:16.411Z,4.15
2023-05-23T03:23:02.415Z,4.35
2023-05-23T03:25:48.784Z,5.60
2023-05-23T03:28:36.959Z,5.53
2023-05-23T03:31:22.883Z,5.10
2023-05-23T03:34:09.337Z,4.70
2023-05-23T03:36:55.501Z,4.53
2023-05-23T03:39:41.479Z,4.18
2023-05-23T03:42:28.502Z,4.00
2023-05-23T03:45:15.102Z,4.40
2023-05-23T03:48:01.526Z,4.40
2023-05-23T03:50:47.568Z,4.78
2023-05-23T03:53:34.807Z,4.03
2023-05-23T03:56:22.915Z,4.70
2023-05-23T03:59:09.030Z,4.97
2023-05-23T04:01:58.807Z,4.13
2023-05-23T04:04:44.963Z,4.97
2023-05-23T04:07:34.620Z,4.63
2023-05-23T04:10:20.524Z,3.95
2023-05-23T04:13:07.153Z,4.45
2023-05-23T04:15:53.175Z,3.70
2023-05-23T04:18:40.062Z,4.80
2023-05-23T04:21:27.482Z,3.80
2023-05-23T04:24:22.809Z,4.45
2023-05-23T04:27:09.027Z,4.22
2023-05-23T04:29:56.691Z,3.97
2023-05-23T04:32:43.039Z,4.47
2023-05-23T04:35:29.164Z,4.10
2023-05-23T04:38:15.356Z,4.22
2023-05-23T04:41:01.751Z,4.75
2023-05-23T04:44:17.126Z,4.03
2023-05-23T04:47:13.603Z,4.03
2023-05-23T04:50:15.058Z,4.10
2023-05-23T04:53:02.434Z,4.38
2023-05-23T04:55:48.938Z,4.40
2023-05-23T04:58:37.198Z,4.00
2023-05-23T05:01:28.204Z,4.82
2023-05-23T05:04:14.357Z,4.32
2023-05-23T05:07:00.710Z,4.78
2023-05-23T05:09:47.183Z,4.68
2023-05-23T05:12:34.483Z,4.63
2023-05-23T05:15:20.846Z,4.45
2023-05-23T05:18:12.428Z,4.13
2023-05-23T05:20:59.188Z,4.45
2023-05-23T05:23:45.312Z,5.30
2023-05-23T05:26:34.407Z,6.18
2023-05-23T05:29:22.089Z,4.72
2023-05-23T05:32:09.181Z,5.10
2023-05-23T05:34:55.778Z,3.58
2023-05-23T05:37:41.662Z,21.20
2023-05-23T05:40:29.091Z,4.35
2023-05-23T05:43:15.448Z,4.28
2023-05-23T05:46:01.928Z,4.43
2023-05-23T05:48:49.120Z,4.50
2023-05-23T05:51:36.883Z,4.22
2023-05-23T05:54:23.038Z,5.35
2023-05-23T05:57:09.314Z,4.65
2023-05-23T05:59:55.539Z,4.00
2023-05-23T06:02:47.808Z,4.25
2023-05-23T06:05:39.951Z,4.78
2023-05-23T06:08:26.148Z,4.60
2023-05-23T06:11:12.353Z,3.72
2023-05-23T06:14:00.429Z,4.85
2023-05-23T06:16:46.710Z,4.47
2023-05-23T06:19:34.081Z,4.85
2023-05-23T06:22:20.732Z,4.50
2023-05-23T06:25:09.967Z,4.90
2023-05-23T06:28:06.426Z,5.07
2023-05-23T06:30:53.586Z,5.85
2023-05-23T06:33:39.870Z,6.88
2023-05-23T06:36:28.243Z,16.75
2023-05-23T06:39:15.163Z,16.95
2023-05-23T06:42:04.083Z,8.25
2023-05-23T06:45:07.345Z,6.28
2023-05-23T06:47:53.456Z,5.18
2023-05-23T06:50:41.551Z,4.38
2023-05-23T06:53:30.032Z,5.10
2023-05-23T06:56:16.970Z,5.45
2023-05-23T06:59:16.195Z,25.98
2023-05-23T07:02:02.248Z,8.93
2023-05-23T07:04:52.068Z,7.82
2023-05-23T07:07:57.884Z,7.50
2023-05-23T07:10:45.022Z,6.10
2023-05-23T07:13:44.673Z,6.05
2023-05-23T07:16:42.902Z,6.35
2023-05-23T07:19:30.405Z,5.45
2023-05-23T07:22:16.978Z,5.32
2023-05-23T07:25:04.072Z,5.03
2023-05-23T07:27:54.695Z,6.75
2023-05-23T07:30:42.728Z,6.28
2023-05-23T07:33:34.666Z,6.03
2023-05-23T07:36:32.541Z,6.13
2023-05-23T07:39:22.799Z,5.78
2023-05-23T07:42:11.524Z,7.40
2023-05-23T07:44:58.148Z,6.05
2023-05-23T07:47:44.594Z,9.27
2023-05-23T07:50:31.715Z,8.70
2023-05-23T07:53:18.531Z,10.32
2023-05-23T07:56:06.237Z,11.13
2023-05-23T07:58:56.304Z,4.50
2023-05-23T08:01:44.962Z,5.25
2023-05-23T08:04:36.318Z,4.38
2023-05-23T08:07:23.916Z,4.43
2023-05-23T08:10:14.037Z,4.35
2023-05-23T08:13:01.128Z,4.70
2023-05-23T08:15:54.307Z,4.18
2023-05-23T08:18:44.065Z,4.25
2023-05-23T08:21:30.042Z,4.05
2023-05-23T08:24:16.156Z,4.45
2023-05-23T08:27:06.784Z,4.40
2023-05-23T08:29:55.886Z,3.97
2023-05-23T08:32:43.799Z,5.32
2023-05-23T08:35:35.234Z,8.00
2023-05-23T08:38:24.191Z,5.63
2023-05-23T08:41:22.311Z,4.78
2023-05-23T08:44:11.362Z,4.47
2023-05-23T08:47:08.849Z,3.80
2023-05-23T08:50:08.420Z,3.70
2023-05-23T08:52:59.261Z,5.63
2023-05-23T08:55:48.930Z,5.70
2023-05-23T08:58:36.557Z,4.63
2023-05-23T09:01:26.440Z,6.95
2023-05-23T09:04:15.403Z,6.07
2023-05-23T09:07:17.062Z,6.25
2023-05-23T09:10:07.221Z,5.70
2023-05-23T09:12:53.474Z,4.45
2023-05-23T09:16:00.229Z,4.13
2023-05-23T09:18:49.163Z,4.15
2023-05-23T09:21:36.877Z,4.75
2023-05-23T09:24:38.661Z,4.47
2023-05-23T09:27:28.010Z,4.28
2023-05-23T09:30:14.550Z,4.63
2023-05-23T09:33:05.459Z,4.63
2023-05-23T09:35:52.574Z,3.72
2023-05-23T09:38:39.970Z,4.00
2023-05-23T09:41:26.698Z,4.00
2023-05-23T09:44:12.692Z,3.45
2023-05-23T09:46:58.748Z,3.63
2023-05-23T09:49:46.751Z,19.05
2023-05-23T09:52:39.021Z,7.32
2023-05-23T09:55:25.189Z,6.13
2023-05-23T09:58:11.491Z,5.70
2023-05-23T10:01:00.758Z,3.85
2023-05-23T10:03:51.936Z,3.72
2023-05-23T10:06:43.129Z,4.40
2023-05-23T10:09:33.856Z,3.80
2023-05-23T10:12:41.600Z,3.60
2023-05-23T10:15:31.461Z,3.70
2023-05-23T10:18:21.667Z,3.47
2023-05-23T10:21:12.221Z,3.30
2023-05-23T10:24:00.047Z,4.03
2023-05-23T10:26:46.368Z,3.55
2023-05-23T10:29:33.977Z,3.00
2023-05-23T10:32:20.062Z,2.60
2023-05-23T10:35:15.307Z,2.30
2023-05-23T10:38:14.081Z,2.20
2023-05-23T10:41:24.681Z,2.80
2023-05-23T10:44:33.925Z,2.83
2023-05-23T10:47:28.929Z,2.28
2023-05-23T10:50:37.421Z,2.17
2023-05-23T10:53:23.803Z,2.80
2023-05-23T10:56:10.874Z,2.67
2023-05-23T10:58:58.581Z,2.03
2023-05-23T11:01:45.024Z,2.10
2023-05-23T11:04:30.986Z,2.83
2023-05-23T11:07:31.034Z,2.42
2023-05-23T11:10:18.980Z,3.50
2023-05-23T11:13:07.804Z,2.33
2023-05-23T11:15:53.836Z,3.17
2023-05-23T11:18:40.062Z,3.00
2023-05-23T11:21:27.779Z,2.90
2023-05-23T11:24:13.899Z,3.25
2023-05-23T11:27:01.363Z,3.05
2023-05-23T11:30:00.745Z,2.53
2023-05-23T11:32:53.142Z,2.17
2023-05-23T11:35:47.113Z,12.93
2023-05-23T11:38:33.216Z,11.30
2023-05-23T11:41:19.589Z,5.50
2023-05-23T11:44:13.671Z,5.53
2023-05-23T11:47:04.400Z,8.50
2023-05-23T11:49:50.530Z,11.30
2023-05-23T11:52:36.676Z,17.10
2023-05-23T11:55:23.617Z,5.13
2023-05-23T11:58:09.738Z,4.35
2023-05-23T12:01:06.770Z,3.83
2023-05-23T12:03:53.273Z,4.63
2023-05-23T12:06:41.931Z,6.95
2023-05-23T12:09:28.047Z,5.95
2023-05-23T12:12:14.836Z,4.57
2023-05-23T12:15:01.389Z,3.45
2023-05-23T12:17:47.730Z,2.00
2023-05-23T12:20:35.628Z,2.72
2023-05-23T12:23:25.307Z,2.10
2023-05-23T12:26:11.813Z,2.22
2023-05-23T12:29:00.219Z,2.42
2023-05-23T12:31:49.498Z,2.50
2023-05-23T12:34:41.803Z,3.17
2023-05-23T12:37:30.043Z,2.75
2023-05-23T12:40:17.884Z,2.95
2023-05-23T12:43:04.069Z,3.00
2023-05-23T12:45:50.257Z,3.08
2023-05-23T12:48:36.033Z,3.47
2023-05-23T12:51:22.435Z,3.38
2023-05-23T12:54:11.735Z,4.03
2023-05-23T12:56:57.975Z,3.88
2023-05-23T12:59:43.823Z,2.53
2023-05-23T13:02:29.868Z,2.13
2023-05-23T13:05:15.927Z,4.15
2023-05-23T13:08:02.113Z,3.45
2023-05-23T13:10:48.380Z,3.30
2023-05-23T13:13:34.502Z,2.88
2023-05-23T13:16:20.883Z,3.40
2023-05-23T13:19:07.180Z,2.67
2023-05-23T13:21:53.114Z,2.70
2023-05-23T13:24:39.945Z,2.72
2023-05-23T13:27:26.222Z,2.90
2023-05-23T13:30:12.768Z,2.65
2023-05-23T13:32:59.089Z,2.90
2023-05-23T13:35:45.611Z,3.63
2023-05-23T13:38:32.436Z,3.42
2023-05-23T13:41:31.189Z,2.70
2023-05-23T13:44:19.324Z,3.45
2023-05-23T13:47:13.152Z,3.10
2023-05-23T13:49:59.527Z,2.42
2023-05-23T13:52:49.024Z,2.42
2023-05-23T13:55:36.697Z,3.55
2023-05-23T13:58:22.875Z,2.25
2023-05-23T14:01:09.539Z,2.35
2023-05-23T14:03:56.876Z,2.20
2023-05-23T14:06:43.053Z,1.92
2023-05-23T14:09:29.396Z,2.20
2023-05-23T14:12:15.464Z,2.50
2023-05-23T14:15:01.301Z,1.95
2023-05-23T14:17:47.948Z,2.20
2023-05-23T14:20:34.213Z,2.50
2023-05-23T14:23:20.458Z,2.42
2023-05-23T14:26:06.638Z,1.95
2023-05-23T14:28:52.748Z,2.10
2023-05-23T14:31:39.166Z,2.50
2023-05-23T14:34:25.527Z,2.40
2023-05-23T14:37:11.767Z,3.50
2023-05-23T14:39:58.074Z,2.72
2023-05-23T14:42:44.465Z,2.97
2023-05-23T14:45:30.691Z,2.30
2023-05-23T14:48:17.245Z,2.70
2023-05-23T14:51:03.494Z,2.90
2023-05-23T14:53:49.617Z,2.70
2023-05-23T14:56:37.792Z,2.72
2023-05-23T14:59:24.117Z,2.80
2023-05-23T15:02:10.546Z,2.80
2023-05-23T15:04:56.737Z,2.60
2023-05-23T15:07:42.991Z,2.80
2023-05-23T15:10:28.720Z,2.38
2023-05-23T15:13:15.087Z,3.10
2023-05-23T15:16:01.468Z,2.70
2023-05-23T15:18:47.650Z,2.55
2023-05-23T15:21:34.518Z,3.90
2023-05-23T15:24:20.808Z,3.78
2023-05-23T15:27:19.428Z,2.03
2023-05-23T15:30:08.600Z,2.85
2023-05-23T15:32:57.890Z,2.75
2023-05-23T15:35:45.160Z,2.78
2023-05-23T15:38:31.211Z,3.55
2023-05-23T15:41:17.075Z,10.23
2023-05-23T15:44:03.165Z,4.60
2023-05-23T15:46:51.304Z,3.40
2023-05-23T15:49:43.964Z,3.20
2023-05-23T15:52:29.830Z,3.45
2023-05-23T15:55:16.216Z,2.88
2023-05-23T15:58:02.323Z,3.25
2023-05-23T16:00:48.415Z,3.97
2023-05-23T16:03:34.529Z,3.17
2023-05-23T16:06:21.375Z,5.10
2023-05-23T16:09:07.435Z,5.20
2023-05-23T16:11:53.474Z,6.57
2023-05-23T16:14:39.763Z,8.48
2023-05-23T16:17:25.779Z,12.50
2023-05-23T16:20:11.789Z,9.38
2023-05-23T16:22:57.997Z,5.30
2023-05-23T16:25:44.432Z,6.65
2023-05-23T16:28:30.758Z,37.55
2023-05-23T16:31:17.215Z,34.85
2023-05-23T16:34:03.508Z,11.60
2023-05-23T16:36:49.430Z,11.85
2023-05-23T16:39:35.614Z,13.27
2023-05-23T16:42:22.461Z,11.35
2023-05-23T16:45:08.903Z,8.73
2023-05-23T16:47:55.134Z,9.18
2023-05-23T16:50:41.339Z,4.40
2023-05-23T16:53:28.469Z,3.60
2023-05-23T16:56:14.842Z,3.83
2023-05-23T16:59:00.907Z,4.38
2023-05-23T17:01:47.122Z,4.75
2023-05-23T17:04:33.186Z,4.03
2023-05-23T17:07:18.948Z,4.40
2023-05-23T17:10:05.106Z,25.90
2023-05-23T17:12:51.071Z,41.00
2023-05-23T17:15:37.328Z,27.33
2023-05-23T17:18:23.543Z,8.80
2023-05-23T17:21:09.591Z,5.82
2023-05-23T17:24:00.748Z,5.13
2023-05-23T17:26:47.020Z,5.38
2023-05-23T17:29:34.304Z,6.07
2023-05-23T17:32:20.211Z,6.97
2023-05-23T17:35:06.879Z,6.05
2023-05-23T17:37:57.567Z,5.72
2023-05-23T17:40:43.802Z,5.85
2023-05-23T17:43:30.221Z,5.88
2023-05-23T17:46:16.476Z,5.35
2023-05-23T17:49:02.570Z,5.05
2023-05-23T17:51:48.628Z,4.20
2023-05-23T17:54:34.432Z,5.45
2023-05-23T17:57:20.351Z,4.72
2023-05-23T18:00:07.350Z,5.13
2023-05-23T18:02:58.608Z,4.57
2023-05-23T18:05:44.548Z,4.03
2023-05-23T18:08:31.140Z,5.75
2023-05-23T18:11:17.389Z,49.47
2023-05-23T18:14:03.403Z,46.13
2023-05-23T18:16:49.629Z,52.90
2023-05-23T18:20:11.826Z,6.55
2023-05-23T18:22:57.752Z,4.55
2023-05-23T18:25:43.949Z,4.32
2023-05-23T18:28:31.866Z,3.72
2023-05-23T18:31:17.950Z,3.78
2023-05-23T18:34:04.645Z,3.20
2023-05-23T18:36:50.603Z,3.88
2023-05-23T18:39:36.561Z,3.15
2023-05-23T18:42:22.525Z,3.20
2023-05-23T18:45:09.514Z,2.63
2023-05-23T18:47:55.340Z,2.10
2023-05-23T18:50:41.619Z,2.50
2023-05-23T18:53:27.657Z,2.42
2023-05-23T18:56:13.790Z,3.05
2023-05-23T18:58:59.663Z,2.80
2023-05-23T19:01:45.402Z,2.75
2023-05-23T19:04:31.419Z,2.63
2023-05-23T19:07:17.622Z,2.50
2023-05-23T19:10:03.964Z,3.17
2023-05-23T19:12:50.173Z,3.47
2023-05-23T19:15:36.270Z,3.83
2023-05-23T19:18:23.305Z,3.85
2023-05-23T19:21:11.400Z,4.15
2023-05-23T19:24:00.653Z,3.80
2023-05-23T19:26:46.668Z,3.35
2023-05-23T19:29:34.975Z,3.90
2023-05-23T19:32:21.130Z,3.30
2023-05-23T19:35:08.734Z,3.22
2023-05-23T19:37:55.167Z,3.25
2023-05-23T19:40:41.302Z,4.32
2023-05-23T19:43:27.671Z,55.63
2023-05-23T19:46:13.735Z,82.72
2023-05-23T19:48:59.973Z,19.20
2023-05-23T19:51:45.971Z,7.13
2023-05-23T19:54:33.152Z,7.10
2023-05-23T19:57:20.210Z,7.50
2023-05-23T20:00:07.396Z,49.70
2023-05-23T20:02:53.219Z,42.35
2023-05-23T20:05:39.196Z,24.85
2023-05-23T20:08:25.522Z,6.72
2023-05-23T20:11:12.613Z,6.40
2023-05-23T20:13:58.552Z,5.30
2023-05-23T20:16:44.329Z,4.13
2023-05-23T20:19:30.353Z,4.40
2023-05-23T20:22:16.983Z,3.85
2023-05-23T20:25:03.064Z,4.13
2023-05-23T20:27:48.995Z,4.13
2023-05-23T20:30:35.076Z,3.75
2023-05-23T20:33:20.953Z,3.50
2023-05-23T20:36:07.802Z,3.40
2023-05-23T20:38:54.200Z,3.50
2023-05-23T20:41:42.193Z,3.97
2023-05-23T20:44:28.120Z,3.85
2023-05-23T20:47:15.582Z,3.60
2023-05-23T20:50:01.551Z,3.30
2023-05-23T20:52:48.124Z,3.13
2023-05-23T20:55:38.132Z,3.38
2023-05-23T20:58:24.279Z,4.10
2023-05-23T21:01:12.023Z,3.22
2023-05-23T21:03:57.876Z,3.30
2023-05-23T21:06:43.637Z,3.03
2023-05-23T21:09:29.598Z,3.60
2023-05-23T21:12:27.486Z,3.80
2023-05-23T21:15:13.589Z,3.55
2023-05-23T21:17:59.502Z,3.63
2023-05-23T21:20:46.874Z,3.20
2023-05-23T21:23:32.928Z,4.47
2023-05-23T21:26:18.865Z,3.00
2023-05-23T21:29:06.126Z,3.10
2023-05-23T21:31:52.853Z,3.25
2023-05-23T21:34:38.852Z,3.60
2023-05-23T21:37:25.043Z,3.13
2023-05-23T21:40:11.408Z,3.50
2023-05-23T21:42:57.413Z,3.20
2023-05-23T21:45:43.498Z,3.28
2023-05-23T21:48:29.652Z,3.33
2023-05-23T21:51:15.569Z,3.42
2023-05-23T21:54:01.840Z,4.22
2023-05-23T21:56:47.890Z,3.00
2023-05-23T21:59:33.694Z,3.13
2023-05-23T22:02:20.026Z,3.60
2023-05-23T22:05:07.125Z,3.03
2023-05-23T22:07:53.225Z,4.30
2023-05-23T22:10:40.890Z,3.30
2023-05-23T22:13:27.397Z,2.92
2023-05-23T22:16:13.569Z,3.40
2023-05-23T22:19:00.687Z,3.30
2023-05-23T22:21:46.967Z,2.80
2023-05-23T22:24:32.725Z,2.85
2023-05-23T22:27:18.614Z,2.97
2023-05-23T22:30:07.294Z,3.20
2023-05-23T22:32:53.692Z,3.33
2023-05-23T22:35:41.043Z,3.60
2023-05-23T22:38:26.810Z,3.60
2023-05-23T22:41:14.978Z,3.83
2023-05-23T22:44:02.235Z,3.33
2023-05-23T22:46:49.188Z,2.92
2023-05-23T22:49:35.457Z,3.20
2023-05-23T22:52:23.442Z,3.22
2023-05-23T22:55:10.190Z,3.20
2023-05-23T22:57:56.073Z,3.03
2023-05-23T23:00:43.664Z,3.20
2023-05-23T23:03:29.847Z,2.95
2023-05-23T23:06:15.786Z,3.80
2023-05-23T23:09:01.830Z,2.83
2023-05-23T23:11:48.103Z,3.20
2023-05-23T23:14:33.987Z,3.13
2023-05-23T23:17:19.976Z,3.55
2023-05-23T23:20:08.501Z,3.38
2023-05-23T23:22:54.451Z,3.67
2023-05-23T23:25:40.439Z,2.70
2023-05-23T23:28:26.688Z,3.00
2023-05-23T23:31:12.610Z,3.15
2023-05-23T23:33:58.497Z,3.30
2023-05-23T23:36:44.208Z,3.58
2023-05-23T23:39:30.203Z,2.90
2023-05-23T23:42:16.626Z,3.10
2023-05-23T23:45:02.811Z,3.15
2023-05-23T23:47:49.170Z,2.80
2023-05-23T23:50:35.374Z,2.88
2023-05-23T23:53:21.861Z,3.92
2023-05-23T23:56:08.666Z,3.97
2023-05-23T23:58:54.358Z,3.78
